Time;durP1;ratioP1;P1;durP2;ratioP2;P2;SDS_P1;SDS_P2;PMS_P1;PMS_P2;Temp;Humidity;BMP_temperature;BMP_pressure;BME280_temperature;BME280_humidity;BME280_pressure;Samples;Min_cycle;Max_cycle;Signal;HPM_P1;HPM_P2
2022/09/08 00:01:16;;;;;;;1.95;1.85;;;;;;;;;;4995228;28;20203;-83
2022/09/08 00:03:44;;;;;;;2.13;2.03;;;;;;;;;;4995388;28;20237;-83
2022/09/08 00:06:16;;;;;;;1.95;1.80;;;;;;;;;;4995077;28;20208;-83
2022/09/08 00:08:45;;;;;;;1.70;1.60;;;;;;;;;;4995297;28;20210;-83
2022/09/08 00:11:15;;;;;;;2.70;2.60;;;;;;;;;;4995198;28;20207;-83
2022/09/08 00:13:44;;;;;;;2.13;2.00;;;;;;;;;;4995018;28;20228;-83
2022/09/08 00:16:18;;;;;;;1.60;1.50;;;;;;;;;;4995073;28;20218;-83
2022/09/08 00:18:47;;;;;;;2.47;1.95;;;;;;;;;;4994940;28;20203;-83
2022/09/08 00:21:15;;;;;;;2.17;2.00;;;;;;;;;;4995186;28;20211;-83
2022/09/08 00:23:42;;;;;;;2.35;2.25;;;;;;;;;;5013724;28;20211;-84
2022/09/08 00:26:10;;;;;;;2.20;1.85;;;;;;;;;;5013789;28;20709;-83
2022/09/08 00:28:37;;;;;;;2.10;1.90;;;;;;;;;;5013788;28;20730;-83
2022/09/08 00:31:05;;;;;;;2.78;2.10;;;;;;;;;;5014139;28;20290;-83
2022/09/08 00:33:35;;;;;;;2.63;2.42;;;;;;;;;;5014277;28;20223;-83
2022/09/08 00:36:04;;;;;;;1.60;1.50;;;;;;;;;;5014698;28;20203;-83
2022/09/08 00:38:32;;;;;;;2.30;1.80;;;;;;;;;;5013966;28;20217;-83
2022/09/08 00:41:00;;;;;;;2.35;2.17;;;;;;;;;;5014080;28;20209;-83
2022/09/08 00:43:34;;;;;;;2.35;2.15;;;;;;;;;;5013792;28;20206;-83
2022/09/08 00:46:15;;;;;;;2.00;1.90;;;;;;;;;;5013901;28;20207;-83
2022/09/08 00:48:47;;;;;;;2.00;1.90;;;;;;;;;;5014023;28;20675;-83
2022/09/08 00:51:17;;;;;;;2.22;2.13;;;;;;;;;;5014099;28;20205;-83
2022/09/08 00:53:45;;;;;;;2.63;1.88;;;;;;;;;;5013500;28;20230;-83
2022/09/08 00:56:13;;;;;;;2.55;2.40;;;;;;;;;;5013918;28;20199;-83
2022/09/08 00:58:41;;;;;;;1.67;1.58;;;;;;;;;;5013740;28;20195;-83
2022/09/08 01:01:09;;;;;;;1.77;1.67;;;;;;;;;;5013730;28;20203;-83
2022/09/08 01:03:39;;;;;;;2.08;1.98;;;;;;;;;;5013520;28;20199;-83
2022/09/08 01:12:43;;;;;;;1.77;1.67;;;;;;;;;;5013644;28;20199;-83
2022/09/08 01:14:57;;;;;;;2.95;1.80;;;;;;;;;;5026857;28;20229;-83
2022/09/08 01:17:27;;;;;;;2.67;1.83;;;;;;;;;;5026783;28;20206;-83
2022/09/08 01:19:55;;;;;;;1.70;1.60;;;;;;;;;;5021578;28;20243;-83
2022/09/08 01:22:41;;;;;;;1.80;1.70;;;;;;;;;;5015346;28;20207;-84
2022/09/08 01:25:26;;;;;;;1.90;1.80;;;;;;;;;;5016434;28;20222;-84
2022/09/08 01:28:00;;;;;;;1.70;1.60;;;;;;;;;;5015567;28;20213;-84
2022/09/08 01:30:28;;;;;;;2.17;2.08;;;;;;;;;;5015358;28;20217;-83
2022/09/08 01:32:55;;;;;;;2.70;2.28;;;;;;;;;;5015268;28;20229;-83
2022/09/08 01:35:30;;;;;;;1.80;1.70;;;;;;;;;;5015134;28;20229;-84
2022/09/08 01:37:58;;;;;;;2.53;2.40;;;;;;;;;;5014292;28;20249;-83
2022/09/08 01:40:26;;;;;;;1.80;1.70;;;;;;;;;;5015613;28;20195;-83
2022/09/08 01:42:54;;;;;;;2.33;2.13;;;;;;;;;;5013988;28;20579;-84
2022/09/08 01:45:23;;;;;;;2.05;1.88;;;;;;;;;;5014784;28;20226;-83
2022/09/08 01:47:51;;;;;;;2.38;2.28;;;;;;;;;;5013821;28;20209;-83
2022/09/08 01:50:18;;;;;;;1.88;1.77;;;;;;;;;;5014032;28;20202;-83
2022/09/08 01:52:46;;;;;;;1.67;1.58;;;;;;;;;;5013536;28;20234;-83
2022/09/08 01:55:14;;;;;;;1.83;1.73;;;;;;;;;;5013887;28;20234;-84
2022/09/08 01:57:41;;;;;;;2.33;2.13;;;;;;;;;;5014138;28;20643;-83
2022/09/08 02:00:12;;;;;;;1.80;1.67;;;;;;;;;;5014421;28;20210;-84
2022/09/08 02:02:39;;;;;;;2.45;2.00;;;;;;;;;;5013556;28;20202;-83
2022/09/08 02:05:07;;;;;;;1.88;1.77;;;;;;;;;;5013564;28;20782;-83
2022/09/08 02:07:37;;;;;;;2.42;2.17;;;;;;;;;;5013750;28;20206;-83
2022/09/08 02:10:05;;;;;;;2.28;2.17;;;;;;;;;;5013663;28;20199;-83
2022/09/08 02:12:33;;;;;;;2.00;1.90;;;;;;;;;;5013625;28;20852;-83
2022/09/08 02:15:01;;;;;;;1.95;1.85;;;;;;;;;;5013564;28;20882;-83
2022/09/08 02:17:31;;;;;;;3.03;2.83;;;;;;;;;;5012911;28;20237;-83
2022/09/08 02:19:59;;;;;;;2.50;2.30;;;;;;;;;;5013073;28;20301;-83
2022/09/08 02:22:26;;;;;;;1.92;1.80;;;;;;;;;;5013066;28;20297;-83
2022/09/08 02:24:54;;;;;;;2.15;2.05;;;;;;;;;;5012971;28;20273;-83
2022/09/08 02:27:21;;;;;;;2.15;2.05;;;;;;;;;;5012970;28;20679;-83
2022/09/08 02:29:49;;;;;;;3.38;2.47;;;;;;;;;;5012905;28;20207;-82
2022/09/08 02:32:17;;;;;;;2.20;2.00;;;;;;;;;;5012987;28;20213;-82
2022/09/08 02:34:45;;;;;;;2.30;2.20;;;;;;;;;;5013211;28;20230;-83
2022/09/08 02:37:13;;;;;;;2.40;2.30;;;;;;;;;;5013105;28;20747;-83
2022/09/08 02:39:40;;;;;;;3.08;2.88;;;;;;;;;;5012605;28;20203;-83
2022/09/08 02:42:11;;;;;;;2.22;2.13;;;;;;;;;;5012860;28;20217;-84
2022/09/08 02:44:39;;;;;;;3.40;3.10;;;;;;;;;;5012826;28;20230;-84
2022/09/08 02:47:07;;;;;;;2.92;2.72;;;;;;;;;;5012720;28;20205;-84
2022/09/08 02:49:35;;;;;;;3.35;2.90;;;;;;;;;;5012954;28;20210;-83
2022/09/08 02:52:04;;;;;;;2.22;2.13;;;;;;;;;;5017143;28;20747;-83
2022/09/08 02:54:32;;;;;;;2.47;2.35;;;;;;;;;;5038555;23;20241;-77
2022/09/08 02:56:59;;;;;;;2.10;2.00;;;;;;;;;;5015796;28;20213;-77
2022/09/08 02:59:27;;;;;;;2.40;2.17;;;;;;;;;;5015855;28;20591;-76
2022/09/08 03:01:54;;;;;;;2.60;2.40;;;;;;;;;;5016485;28;20203;-77
2022/09/08 03:04:22;;;;;;;3.63;2.50;;;;;;;;;;5015677;28;20306;-77
2022/09/08 03:06:49;;;;;;;2.40;2.30;;;;;;;;;;5018014;28;20267;-78
2022/09/08 03:09:18;;;;;;;2.47;2.13;;;;;;;;;;5018478;28;20291;-78
2022/09/08 03:11:45;;;;;;;2.28;2.13;;;;;;;;;;5017706;28;20285;-78
2022/09/08 03:14:13;;;;;;;1.65;1.55;;;;;;;;;;5018056;28;20226;-77
2022/09/08 03:16:40;;;;;;;1.55;1.48;;;;;;;;;;5018455;28;20199;-78
2022/09/08 03:19:08;;;;;;;1.60;1.50;;;;;;;;;;5018257;28;20218;-78
2022/09/08 03:21:36;;;;;;;1.48;1.38;;;;;;;;;;5016593;28;20207;-78
2022/09/08 03:24:04;;;;;;;1.75;1.27;;;;;;;;;;4998581;28;20215;-78
2022/09/08 03:26:33;;;;;;;1.33;1.23;;;;;;;;;;4998151;28;20210;-79
2022/09/08 03:29:00;;;;;;;1.60;1.50;;;;;;;;;;4998538;28;20256;-78
2022/09/08 03:31:28;;;;;;;1.05;1.05;;;;;;;;;;4999331;28;20287;-79
2022/09/08 03:33:55;;;;;;;1.20;1.20;;;;;;;;;;4997554;28;20688;-79
2022/09/08 03:36:23;;;;;;;1.75;1.65;;;;;;;;;;4997007;28;20211;-77
2022/09/08 03:38:50;;;;;;;1.30;1.30;;;;;;;;;;4997036;28;20214;-78
2022/09/08 03:41:18;;;;;;;1.75;1.65;;;;;;;;;;4997965;28;20306;-76
2022/09/08 03:43:50;;;;;;;1.52;1.42;;;;;;;;;;4998358;28;20220;-77
2022/09/08 03:46:18;;;;;;;1.20;1.20;;;;;;;;;;4997645;28;20213;-77
2022/09/08 03:48:46;;;;;;;1.48;1.30;;;;;;;;;;4998086;28;20207;-78
2022/09/08 03:51:16;;;;;;;2.00;1.90;;;;;;;;;;4997252;28;20290;-78
2022/09/08 03:53:44;;;;;;;3.53;3.22;;;;;;;;;;4997164;28;20250;-78
2022/09/08 03:56:13;;;;;;;2.30;2.10;;;;;;;;;;4997246;28;20798;-78
2022/09/08 03:58:40;;;;;;;2.85;2.65;;;;;;;;;;4997171;28;20204;-77
2022/09/08 04:01:12;;;;;;;2.03;1.92;;;;;;;;;;4997969;28;20206;-77
2022/09/08 04:03:40;;;;;;;2.10;2.00;;;;;;;;;;5000145;28;20722;-78
2022/09/08 04:06:08;;;;;;;2.65;2.55;;;;;;;;;;4999868;28;20272;-78
2022/09/08 04:08:35;;;;;;;1.98;1.88;;;;;;;;;;4996970;28;20263;-78
2022/09/08 04:11:04;;;;;;;2.13;2.03;;;;;;;;;;4999741;28;20218;-77
2022/09/08 04:13:31;;;;;;;2.45;1.98;;;;;;;;;;5000524;28;20258;-78
2022/09/08 04:15:58;;;;;;;1.92;1.83;;;;;;;;;;4997601;28;20249;-78
2022/09/08 04:18:27;;;;;;;2.72;2.53;;;;;;;;;;4998009;28;20220;-78
2022/09/08 04:20:59;;;;;;;2.55;2.45;;;;;;;;;;4999871;28;20246;-77
2022/09/08 04:23:26;;;;;;;2.42;2.22;;;;;;;;;;5000353;28;20235;-78
2022/09/08 04:25:58;;;;;;;2.47;2.28;;;;;;;;;;5000499;28;20298;-78
2022/09/08 04:28:26;;;;;;;1.88;1.77;;;;;;;;;;5004578;28;20195;-76
2022/09/08 04:30:54;;;;;;;3.33;3.13;;;;;;;;;;5016425;28;20192;-77
2022/09/08 04:33:21;;;;;;;3.53;3.22;;;;;;;;;;5010676;28;20269;-77
2022/09/08 04:35:50;;;;;;;4.75;4.00;;;;;;;;;;5009385;28;20226;-77
2022/09/08 04:38:19;;;;;;;3.70;3.40;;;;;;;;;;4995169;28;20314;-76
2022/09/08 04:40:47;;;;;;;4.35;3.95;;;;;;;;;;4996788;28;20207;-79
2022/09/08 04:43:14;;;;;;;3.72;3.38;;;;;;;;;;4997853;28;20232;-79
2022/09/08 04:45:41;;;;;;;3.17;2.97;;;;;;;;;;4996278;28;20204;-77
2022/09/08 04:48:09;;;;;;;3.10;2.90;;;;;;;;;;4994943;28;20668;-78
2022/09/08 04:50:36;;;;;;;3.30;3.10;;;;;;;;;;4994745;28;20302;-77
2022/09/08 04:53:05;;;;;;;3.63;3.33;;;;;;;;;;4997354;28;20218;-77
2022/09/08 04:55:33;;;;;;;4.70;4.30;;;;;;;;;;4995892;28;20318;-76
2022/09/08 04:58:00;;;;;;;3.70;3.40;;;;;;;;;;4994051;28;20283;-77
2022/09/08 05:00:27;;;;;;;3.42;3.15;;;;;;;;;;5007674;28;20207;-76
2022/09/08 05:02:56;;;;;;;4.50;4.20;;;;;;;;;;5016562;28;20247;-76
2022/09/08 05:05:23;;;;;;;3.80;3.50;;;;;;;;;;5007188;28;20262;-76
2022/09/08 05:07:51;;;;;;;3.10;2.90;;;;;;;;;;4994124;28;20200;-77
2022/09/08 05:10:20;;;;;;;2.50;2.30;;;;;;;;;;4993873;28;20214;-77
2022/09/08 05:12:48;;;;;;;2.70;2.50;;;;;;;;;;5003786;28;20303;-78
2022/09/08 05:15:15;;;;;;;2.78;2.58;;;;;;;;;;5006125;28;20251;-77
2022/09/08 05:17:43;;;;;;;2.65;2.45;;;;;;;;;;5005399;28;20299;-78
2022/09/08 05:20:11;;;;;;;2.60;2.40;;;;;;;;;;4996466;28;20258;-78
2022/09/08 05:22:39;;;;;;;2.53;2.25;;;;;;;;;;4990363;28;20200;-78
2022/09/08 05:25:09;;;;;;;2.67;2.47;;;;;;;;;;4995424;28;20302;-79
2022/09/08 05:27:37;;;;;;;2.22;1.83;;;;;;;;;;4995192;28;20230;-80
2022/09/08 05:30:06;;;;;;;2.05;1.95;;;;;;;;;;4996217;28;20325;-79
2022/09/08 05:32:35;;;;;;;2.10;2.00;;;;;;;;;;4995572;28;20203;-80
2022/09/08 05:35:03;;;;;;;2.00;1.90;;;;;;;;;;4995881;28;20231;-79
2022/09/08 05:37:31;;;;;;;1.63;1.52;;;;;;;;;;4996076;28;20218;-80
2022/09/08 05:39:58;;;;;;;2.33;1.75;;;;;;;;;;4995909;28;20204;-80
2022/09/08 05:42:25;;;;;;;2.20;2.00;;;;;;;;;;4995714;28;20203;-79
2022/09/08 05:44:54;;;;;;;1.80;1.70;;;;;;;;;;4995665;28;20220;-79
2022/09/08 05:47:22;;;;;;;2.05;1.90;;;;;;;;;;4995142;28;20211;-79
2022/09/08 05:49:49;;;;;;;4.28;3.20;;;;;;;;;;4995158;28;20210;-80
2022/09/08 05:52:16;;;;;;;11.90;3.15;;;;;;;;;;4995258;28;20276;-80
2022/09/08 05:54:44;;;;;;;3.15;2.20;;;;;;;;;;4995220;28;20239;-80
2022/09/08 05:57:13;;;;;;;2.65;2.30;;;;;;;;;;4994845;28;20200;-80
2022/09/08 05:59:42;;;;;;;2.35;2.17;;;;;;;;;;4995659;28;20584;-80
2022/09/08 06:02:10;;;;;;;1.70;1.60;;;;;;;;;;4995748;28;20204;-81
2022/09/08 06:04:38;;;;;;;2.10;2.00;;;;;;;;;;4995843;28;20620;-79
2022/09/08 06:07:06;;;;;;;2.05;1.85;;;;;;;;;;4997345;28;20206;-81
2022/09/08 06:09:33;;;;;;;1.58;1.48;;;;;;;;;;4998655;28;20235;-81
2022/09/08 06:12:02;;;;;;;1.80;1.70;;;;;;;;;;5000373;28;20267;-80
2022/09/08 06:14:30;;;;;;;1.58;1.48;;;;;;;;;;5005263;28;20227;-80
2022/09/08 06:16:57;;;;;;;2.80;1.58;;;;;;;;;;4994925;28;20216;-82
2022/09/08 06:19:26;;;;;;;2.00;1.90;;;;;;;;;;4996309;28;20287;-82
2022/09/08 06:21:54;;;;;;;1.92;1.83;;;;;;;;;;4996738;28;20748;-82
2022/09/08 06:24:21;;;;;;;2.17;1.98;;;;;;;;;;4996695;28;20224;-80
2022/09/08 06:27:00;;;;;;;2.25;2.03;;;;;;;;;;4999965;28;20284;-80
2022/09/08 06:29:44;;;;;;;1.60;1.50;;;;;;;;;;5000771;28;20207;-80
2022/09/08 06:32:24;;;;;;;1.25;1.25;;;;;;;;;;5001777;28;20203;-80
2022/09/08 06:34:57;;;;;;;1.40;1.30;;;;;;;;;;5002067;28;20233;-79
2022/09/08 06:37:37;;;;;;;1.50;1.40;;;;;;;;;;5001257;28;20231;-78
2022/09/08 06:40:11;;;;;;;1.65;1.55;;;;;;;;;;5000628;28;20207;-79
2022/09/08 06:42:49;;;;;;;1.60;1.50;;;;;;;;;;5001814;28;20199;-78
2022/09/08 06:45:23;;;;;;;1.65;1.55;;;;;;;;;;5002655;28;20200;-81
2022/09/08 06:48:03;;;;;;;2.35;2.15;;;;;;;;;;5000334;28;20199;-81
2022/09/08 06:50:33;;;;;;;1.85;1.75;;;;;;;;;;4999962;28;20227;-80
2022/09/08 06:53:05;;;;;;;1.63;1.52;;;;;;;;;;4998741;28;20298;-80
2022/09/08 06:55:37;;;;;;;2.58;2.38;;;;;;;;;;5001336;28;20207;-81
2022/09/08 06:58:17;;;;;;;2.10;1.98;;;;;;;;;;5001272;28;20218;-81
2022/09/08 07:00:50;;;;;;;2.33;2.13;;;;;;;;;;5000709;28;20213;-81
2022/09/08 07:03:31;;;;;;;2.50;2.28;;;;;;;;;;4999966;28;20704;-81
2022/09/08 07:06:03;;;;;;;1.80;1.65;;;;;;;;;;5000383;28;20638;-82
2022/09/08 07:08:43;;;;;;;1.95;1.83;;;;;;;;;;4999287;28;20214;-81
2022/09/08 07:11:31;;;;;;;1.88;1.70;;;;;;;;;;4999218;28;20213;-81
2022/09/08 07:14:06;;;;;;;1.73;1.63;;;;;;;;;;4998617;28;20224;-81
2022/09/08 07:16:41;;;;;;;1.70;1.60;;;;;;;;;;4984098;28;20219;-81
2022/09/08 07:19:16;;;;;;;2.28;1.80;;;;;;;;;;4979483;28;20208;-80
2022/09/08 07:21:51;;;;;;;1.58;1.48;;;;;;;;;;4984431;28;20707;-80
2022/09/08 07:24:22;;;;;;;1.70;1.60;;;;;;;;;;4998231;28;20638;-82
2022/09/08 07:26:52;;;;;;;5.00;2.28;;;;;;;;;;4997758;28;20291;-82
2022/09/08 07:29:23;;;;;;;2.17;1.98;;;;;;;;;;4998054;28;20194;-81
2022/09/08 07:31:53;;;;;;;2.03;1.92;;;;;;;;;;4988290;28;20195;-82
2022/09/08 07:34:24;;;;;;;1.58;1.48;;;;;;;;;;4997103;28;20234;-81
2022/09/08 07:37:02;;;;;;;4.30;2.33;;;;;;;;;;4996023;28;20223;-81
2022/09/08 07:39:38;;;;;;;2.33;2.13;;;;;;;;;;4996397;28;20255;-82
2022/09/08 07:42:09;;;;;;;2.17;2.00;;;;;;;;;;4997266;28;20207;-84
2022/09/08 07:44:38;;;;;;;1.55;1.35;;;;;;;;;;4996453;28;20750;-81
2022/09/08 07:47:33;;;;;;;2.08;1.98;;;;;;;;;;4995693;28;20676;-81
2022/09/08 07:50:07;;;;;;;2.13;1.92;;;;;;;;;;4993184;28;20203;-80
2022/09/08 07:52:45;;;;;;;1.70;1.60;;;;;;;;;;4995481;28;20208;-81
2022/09/08 07:55:24;;;;;;;1.90;1.80;;;;;;;;;;4995496;28;20235;-81
2022/09/08 07:58:03;;;;;;;2.70;2.50;;;;;;;;;;4995323;28;20318;-80
2022/09/08 08:00:43;;;;;;;2.10;2.00;;;;;;;;;;4995468;28;20600;-80
2022/09/08 08:03:37;;;;;;;1.70;1.60;;;;;;;;;;4995365;28;20219;-80
2022/09/08 08:06:08;;;;;;;1.90;1.80;;;;;;;;;;4995257;28;20227;-80
2022/09/08 08:08:49;;;;;;;2.33;2.13;;;;;;;;;;4995018;28;20235;-82
2022/09/08 08:11:21;;;;;;;1.70;1.60;;;;;;;;;;4995658;28;20571;-81
2022/09/08 08:14:09;;;;;;;2.05;1.92;;;;;;;;;;4995493;28;20223;-81
2022/09/08 08:16:54;;;;;;;1.63;1.52;;;;;;;;;;4994775;28;20224;-80
2022/09/08 08:19:37;;;;;;;1.20;1.20;;;;;;;;;;4995985;28;20664;-80
2022/09/08 08:22:15;;;;;;;1.25;1.25;;;;;;;;;;4994796;28;20728;-80
2022/09/08 08:24:52;;;;;;;3.28;1.92;;;;;;;;;;4995716;28;20318;-81
2022/09/08 08:27:29;;;;;;;1.70;1.60;;;;;;;;;;4996025;28;20258;-81
2022/09/08 08:30:17;;;;;;;2.22;2.13;;;;;;;;;;4994025;28;20203;-81
2022/09/08 08:32:49;;;;;;;1.77;1.67;;;;;;;;;;4994842;28;20208;-80
2022/09/08 08:35:23;;;;;;;1.95;1.85;;;;;;;;;;4995364;28;20286;-81
2022/09/08 08:37:54;;;;;;;1.10;1.10;;;;;;;;;;4994723;28;20230;-82
2022/09/08 08:40:57;;;;;;;1.30;1.30;;;;;;;;;;4994519;28;20206;-81
2022/09/08 08:44:12;;;;;;;1.83;1.15;;;;;;;;;;4984356;28;20310;-81
2022/09/08 08:46:52;;;;;;;1.70;1.60;;;;;;;;;;4982905;28;20262;-81
2022/09/08 08:49:45;;;;;;;1.42;1.35;;;;;;;;;;4993665;28;20203;-81
2022/09/08 08:52:43;;;;;;;1.40;1.30;;;;;;;;;;4994475;28;20294;-81
2022/09/08 08:55:36;;;;;;;1.10;1.10;;;;;;;;;;5018845;23;20222;-83
2022/09/08 08:58:25;;;;;;;1.60;1.42;;;;;;;;;;5017449;28;20226;-82
2022/09/08 09:00:59;;;;;;;1.50;1.30;;;;;;;;;;5018092;28;20199;-82
2022/09/08 09:03:46;;;;;;;0.90;0.90;;;;;;;;;;5019076;28;20241;-82
2022/09/08 09:06:40;;;;;;;1.27;1.27;;;;;;;;;;5018213;28;20193;-81
2022/09/08 09:09:47;;;;;;;1.52;1.42;;;;;;;;;;5018242;28;20285;-81
2022/09/08 09:12:37;;;;;;;1.10;1.10;;;;;;;;;;5018217;28;20229;-81
2022/09/08 09:15:37;;;;;;;1.13;1.13;;;;;;;;;;5016318;28;20204;-81
2022/09/08 09:18:59;;;;;;;1.35;1.35;;;;;;;;;;5012018;28;20241;-82
2022/09/08 09:21:40;;;;;;;2.58;1.70;;;;;;;;;;4973319;28;20198;-80
2022/09/08 09:24:19;;;;;;;1.55;1.45;;;;;;;;;;5017710;28;20187;-82
2022/09/08 09:26:50;;;;;;;1.50;1.40;;;;;;;;;;5016541;28;20553;-81
2022/09/08 09:29:22;;;;;;;1.65;1.55;;;;;;;;;;5016947;28;20731;-81
2022/09/08 09:32:21;;;;;;;2.30;2.10;;;;;;;;;;5018006;28;20197;-80
2022/09/08 09:35:42;;;;;;;2.28;2.00;;;;;;;;;;5017370;28;20278;-81
2022/09/08 09:38:56;;;;;;;1.40;1.30;;;;;;;;;;5017761;28;20275;-82
2022/09/08 09:42:15;;;;;;;2.20;1.83;;;;;;;;;;5017146;28;20183;-83
2022/09/08 09:45:01;;;;;;;1.63;1.38;;;;;;;;;;5005664;28;20734;-82
2022/09/08 09:48:04;;;;;;;1.55;1.45;;;;;;;;;;5016061;28;20275;-81
2022/09/08 09:50:54;;;;;;;1.70;1.50;;;;;;;;;;5017670;28;20194;-83
2022/09/08 09:54:09;;;;;;;1.27;1.27;;;;;;;;;;5017257;28;20214;-81
2022/09/08 09:57:21;;;;;;;1.10;1.10;;;;;;;;;;4957473;29;20205;-83
2022/09/08 10:00:19;;;;;;;1.13;1.10;;;;;;;;;;4956620;29;20247;-80
2022/09/08 10:03:42;;;;;;;1.20;1.20;;;;;;;;;;5013681;28;20222;-82
2022/09/08 10:06:24;;;;;;;1.40;1.30;;;;;;;;;;5016757;28;20668;-80
2022/09/08 10:09:40;;;;;;;1.17;1.17;;;;;;;;;;5016253;28;20560;-81
2022/09/08 10:12:48;;;;;;;1.25;1.20;;;;;;;;;;5016359;28;20291;-81
2022/09/08 10:15:59;;;;;;;1.25;1.20;;;;;;;;;;5017222;28;20623;-80
2022/09/08 10:19:01;;;;;;;1.20;1.20;;;;;;;;;;4991046;28;20222;-83
2022/09/08 10:22:23;;;;;;;1.67;1.35;;;;;;;;;;5016456;28;20187;-81
2022/09/08 10:25:35;;;;;;;1.75;1.65;;;;;;;;;;5016373;28;20213;-82
2022/09/08 10:28:57;;;;;;;0.90;0.90;;;;;;;;;;5022995;28;20195;-82
2022/09/08 10:32:11;;;;;;;0.70;0.70;;;;;;;;;;5014662;28;20194;-83
2022/09/08 10:35:37;;;;;;;0.60;0.60;;;;;;;;;;4962041;28;20584;-83
2022/09/08 10:38:40;;;;;;;0.30;0.30;;;;;;;;;;5016711;28;20203;-81
2022/09/08 10:41:28;;;;;;;0.60;0.60;;;;;;;;;;5016614;28;20281;-82
2022/09/08 10:44:23;;;;;;;0.57;0.57;;;;;;;;;;5017953;28;20273;-81
2022/09/08 10:47:19;;;;;;;0.50;0.50;;;;;;;;;;4991008;28;20577;-82
2022/09/08 10:50:25;;;;;;;2.28;0.60;;;;;;;;;;5017217;28;20668;-81
2022/09/08 10:53:38;;;;;;;0.40;0.40;;;;;;;;;;5017102;28;20286;-82
2022/09/08 10:56:15;;;;;;;0.47;0.47;;;;;;;;;;4986137;28;20290;-82
2022/09/08 10:59:34;;;;;;;0.60;0.60;;;;;;;;;;5019426;28;20293;-82
2022/09/08 11:02:34;;;;;;;0.52;0.52;;;;;;;;;;4990541;28;20651;-83
2022/09/08 11:05:42;;;;;;;0.52;0.52;;;;;;;;;;5021214;28;20270;-83
2022/09/08 11:08:59;;;;;;;0.80;0.80;;;;;;;;;;5018300;28;20179;-82
2022/09/08 11:12:11;;;;;;;0.57;0.57;;;;;;;;;;4977637;28;20640;-81
2022/09/08 11:15:16;;;;;;;0.60;0.60;;;;;;;;;;5021364;28;20209;-80
2022/09/08 11:17:47;;;;;;;0.60;0.60;;;;;;;;;;5017699;28;20238;-82
2022/09/08 11:20:27;;;;;;;0.40;0.40;;;;;;;;;;5019243;28;20210;-83
2022/09/08 11:23:19;;;;;;;0.35;0.35;;;;;;;;;;5020412;28;20262;-81
2022/09/08 11:26:08;;;;;;;0.50;0.50;;;;;;;;;;5027665;28;20206;-81
2022/09/08 11:28:51;;;;;;;0.40;0.40;;;;;;;;;;5039534;28;20209;-81
2022/09/08 11:31:30;;;;;;;2.65;0.82;;;;;;;;;;5041206;28;20188;-81
2022/09/08 11:34:23;;;;;;;0.50;0.50;;;;;;;;;;5039954;28;20317;-82
2022/09/08 11:37:30;;;;;;;0.50;0.50;;;;;;;;;;5041058;28;20222;-81
2022/09/08 11:40:18;;;;;;;0.60;0.60;;;;;;;;;;5039666;28;20257;-82
2022/09/08 11:43:02;;;;;;;0.68;0.68;;;;;;;;;;5038884;28;20222;-80
2022/09/08 11:45:41;;;;;;;0.70;0.70;;;;;;;;;;5039237;28;20365;-82
2022/09/08 11:48:56;;;;;;;0.50;0.50;;;;;;;;;;5039143;28;20186;-81
2022/09/08 11:51:43;;;;;;;0.60;0.60;;;;;;;;;;4958078;29;20200;-81
2022/09/08 11:54:44;;;;;;;0.50;0.50;;;;;;;;;;4957125;29;20217;-81
2022/09/08 11:57:37;;;;;;;0.80;0.80;;;;;;;;;;4981024;28;20217;-80
2022/09/08 12:00:24;;;;;;;0.73;0.73;;;;;;;;;;4998496;28;20204;-80
2022/09/08 12:03:37;;;;;;;0.75;0.60;;;;;;;;;;4998357;28;20242;-81
2022/09/08 12:06:24;;;;;;;0.60;0.60;;;;;;;;;;4998087;28;20209;-80
2022/09/08 12:09:14;;;;;;;0.65;0.65;;;;;;;;;;4998223;28;20278;-81
2022/09/08 12:11:58;;;;;;;0.65;0.65;;;;;;;;;;4998495;28;20230;-82
2022/09/08 12:14:30;;;;;;;0.50;0.50;;;;;;;;;;4999001;28;20203;-81
2022/09/08 12:17:09;;;;;;;0.30;0.30;;;;;;;;;;5000363;28;20207;-81
2022/09/08 12:19:57;;;;;;;0.65;0.60;;;;;;;;;;4999080;28;20222;-82
2022/09/08 12:22:42;;;;;;;0.50;0.50;;;;;;;;;;4997619;28;20259;-82
2022/09/08 12:25:37;;;;;;;2.88;1.08;;;;;;;;;;4999369;28;20271;-81
2022/09/08 12:28:29;;;;;;;0.60;0.60;;;;;;;;;;4998833;28;20267;-80
2022/09/08 12:31:14;;;;;;;0.60;0.60;;;;;;;;;;4999043;28;20551;-81
2022/09/08 12:34:11;;;;;;;0.43;0.43;;;;;;;;;;4998710;28;20223;-82
2022/09/08 12:36:44;;;;;;;0.60;0.60;;;;;;;;;;4978279;28;20208;-82
2022/09/08 12:39:39;;;;;;;5.55;1.25;;;;;;;;;;4998928;28;20242;-83
2022/09/08 12:42:48;;;;;;;1.42;0.90;;;;;;;;;;4998736;28;20241;-82
2022/09/08 12:45:28;;;;;;;0.70;0.70;;;;;;;;;;4988539;28;20290;-84
2022/09/08 12:48:06;;;;;;;0.77;0.77;;;;;;;;;;5000515;28;20222;-84
2022/09/08 12:50:49;;;;;;;0.82;0.82;;;;;;;;;;5000899;28;20196;-85
2022/09/08 12:53:43;;;;;;;0.77;0.77;;;;;;;;;;5019527;28;20305;-84
2022/09/08 12:56:19;;;;;;;0.80;0.80;;;;;;;;;;5008199;28;20210;-84
2022/09/08 12:59:00;;;;;;;1.10;0.95;;;;;;;;;;5020783;28;20190;-85
2022/09/08 13:01:36;;;;;;;0.70;0.70;;;;;;;;;;5021173;28;20188;-83
2022/09/08 13:04:39;;;;;;;0.98;0.90;;;;;;;;;;5020273;28;20206;-82
2022/09/08 13:07:16;;;;;;;0.73;0.73;;;;;;;;;;5021400;28;20720;-83
2022/09/08 13:10:00;;;;;;;0.90;0.90;;;;;;;;;;5019571;28;20183;-84
2022/09/08 13:13:20;;;;;;;0.85;0.85;;;;;;;;;;5019268;28;20309;-83
2022/09/08 13:15:53;;;;;;;0.98;0.98;;;;;;;;;;5010515;28;20257;-83
2022/09/08 13:18:32;;;;;;;1.50;1.27;;;;;;;;;;5018938;28;20188;-84
2022/09/08 13:21:10;;;;;;;0.90;0.90;;;;;;;;;;5019681;28;20207;-83
2022/09/08 13:23:46;;;;;;;0.90;0.90;;;;;;;;;;5019105;28;20234;-84
2022/09/08 13:26:45;;;;;;;1.50;1.40;;;;;;;;;;5019105;28;20218;-84
2022/09/08 13:29:43;;;;;;;1.25;1.20;;;;;;;;;;5017696;28;20206;-83
2022/09/08 13:32:27;;;;;;;1.50;1.40;;;;;;;;;;5019168;28;20222;-84
2022/09/08 13:35:11;;;;;;;1.30;1.30;;;;;;;;;;5019393;28;20683;-83
2022/09/08 13:38:00;;;;;;;1.20;1.20;;;;;;;;;;5019211;28;20266;-83
2022/09/08 13:40:41;;;;;;;1.17;1.17;;;;;;;;;;5020124;28;20668;-82
2022/09/08 13:43:26;;;;;;;1.63;1.52;;;;;;;;;;5019530;28;20233;-82
2022/09/08 13:46:07;;;;;;;1.33;1.23;;;;;;;;;;5020049;28;20595;-83
2022/09/08 13:48:52;;;;;;;1.70;1.60;;;;;;;;;;5019611;28;20273;-83
2022/09/08 13:51:52;;;;;;;2.55;1.75;;;;;;;;;;5020019;28;20198;-83
2022/09/08 13:54:47;;;;;;;1.70;1.60;;;;;;;;;;5013188;28;20571;-83
2022/09/08 13:57:48;;;;;;;1.83;1.73;;;;;;;;;;5019100;28;20210;-84
2022/09/08 14:00:19;;;;;;;1.33;1.25;;;;;;;;;;5020070;28;20211;-84
2022/09/08 14:02:56;;;;;;;1.67;1.58;;;;;;;;;;5019604;28;20242;-84
2022/09/08 14:05:32;;;;;;;2.00;1.90;;;;;;;;;;5020629;28;20183;-83
2022/09/08 14:08:13;;;;;;;1.90;1.80;;;;;;;;;;5020930;28;20218;-83
2022/09/08 14:11:16;;;;;;;1.88;1.77;;;;;;;;;;5021800;28;20191;-83
2022/09/08 14:13:44;;;;;;;1.75;1.65;;;;;;;;;;5021315;28;20227;-84
2022/09/08 14:16:20;;;;;;;2.40;2.30;;;;;;;;;;5021175;28;20251;-83
2022/09/08 14:19:09;;;;;;;2.00;1.90;;;;;;;;;;5020970;28;20301;-83
2022/09/08 14:21:45;;;;;;;2.15;2.05;;;;;;;;;;5020047;28;20227;-83
2022/09/08 14:24:32;;;;;;;1.90;1.80;;;;;;;;;;5070197;23;20229;-79
2022/09/08 14:27:09;;;;;;;1.77;1.63;;;;;;;;;;5072845;28;20760;-80
2022/09/08 14:29:56;;;;;;;2.00;1.90;;;;;;;;;;5074487;28;20204;-79
2022/09/08 14:32:43;;;;;;;2.30;2.20;;;;;;;;;;5074684;28;20215;-79
2022/09/08 14:35:31;;;;;;;1.88;1.77;;;;;;;;;;5074906;28;20224;-79
2022/09/08 14:38:29;;;;;;;1.30;1.30;;;;;;;;;;5074938;28;20207;-80
2022/09/08 14:41:08;;;;;;;1.33;1.33;;;;;;;;;;5074256;28;20220;-80
2022/09/08 14:44:05;;;;;;;2.03;1.38;;;;;;;;;;5074602;28;20197;-79
2022/09/08 14:46:51;;;;;;;1.25;1.17;;;;;;;;;;5034163;28;20232;-80
2022/09/08 14:49:35;;;;;;;5.20;2.45;;;;;;;;;;5059643;28;20636;-81
2022/09/08 14:52:15;;;;;;;1.33;1.33;;;;;;;;;;5058360;28;20297;-80
2022/09/08 14:54:55;;;;;;;1.38;1.38;;;;;;;;;;5058186;28;20232;-79
2022/09/08 14:57:28;;;;;;;1.10;1.10;;;;;;;;;;5037613;28;20202;-80
2022/09/08 15:00:22;;;;;;;1.40;1.30;;;;;;;;;;5037239;28;20202;-79
2022/09/08 15:02:58;;;;;;;1.40;1.30;;;;;;;;;;5038516;28;20662;-80
2022/09/08 15:05:39;;;;;;;1.17;1.10;;;;;;;;;;5057047;28;20865;-80
2022/09/08 15:08:22;;;;;;;1.10;1.10;;;;;;;;;;5057990;28;20205;-80
2022/09/08 15:11:08;;;;;;;1.00;1.00;;;;;;;;;;5058404;28;20197;-80
2022/09/08 15:13:39;;;;;;;1.20;1.13;;;;;;;;;;5057390;28;20208;-77
2022/09/08 15:16:29;;;;;;;0.93;0.93;;;;;;;;;;5056793;28;20646;-77
2022/09/08 15:19:03;;;;;;;0.90;0.90;;;;;;;;;;5056895;28;20310;-77
2022/09/08 15:21:49;;;;;;;1.10;1.10;;;;;;;;;;5056379;28;20233;-78
2022/09/08 15:24:38;;;;;;;0.80;0.80;;;;;;;;;;5056276;28;20279;-77
2022/09/08 15:27:18;;;;;;;0.70;0.70;;;;;;;;;;5074513;28;20296;-78
2022/09/08 15:29:55;;;;;;;0.60;0.60;;;;;;;;;;5076540;28;20677;-81
2022/09/08 15:33:07;;;;;;;0.80;0.80;;;;;;;;;;5076130;28;20285;-79
2022/09/08 15:35:54;;;;;;;1.00;1.00;;;;;;;;;;5075360;28;20221;-80
2022/09/08 15:38:45;;;;;;;0.60;0.60;;;;;;;;;;5075378;28;20296;-80
2022/09/08 15:41:22;;;;;;;0.70;0.70;;;;;;;;;;5058363;28;20225;-80
2022/09/08 15:44:24;;;;;;;0.93;0.70;;;;;;;;;;5056055;28;20264;-80
2022/09/08 15:47:08;;;;;;;0.50;0.50;;;;;;;;;;5044628;28;20255;-80
2022/09/08 15:49:59;;;;;;;0.60;0.60;;;;;;;;;;5055446;28;20235;-80
2022/09/08 15:53:17;;;;;;;0.65;0.65;;;;;;;;;;5055606;28;20197;-78
2022/09/08 15:55:58;;;;;;;0.80;0.68;;;;;;;;;;5032792;28;20208;-80
2022/09/08 15:58:33;;;;;;;0.60;0.60;;;;;;;;;;5075687;28;20291;-80
2022/09/08 16:01:11;;;;;;;0.40;0.40;;;;;;;;;;5076568;28;20256;-80
2022/09/08 16:03:49;;;;;;;0.32;0.32;;;;;;;;;;5075701;28;20716;-80